sensor_id;sensor_type;location;lat;lon;timestamp;P1;durP1;ratioP1;P2;durP2;ratioP2
84048;SDS011;74136;51.684;7.862;2023-12-04T00:01:20;11.20;;;5.32;;
84048;SDS011;74136;51.684;7.862;2023-12-04T00:03:46;15.18;;;7.00;;
84048;SDS011;74136;51.684;7.862;2023-12-04T00:06:11;12.45;;;6.13;;
84048;SDS011;74136;51.684;7.862;2023-12-04T00:08:37;15.10;;;6.47;;
84048;SDS011;74136;51.684;7.862;2023-12-04T00:11:04;13.90;;;6.35;;
84048;SDS011;74136;51.684;7.862;2023-12-04T00:13:30;13.13;;;6.18;;
84048;SDS011;74136;51.684;7.862;2023-12-04T00:15:55;13.63;;;5.90;;
84048;SDS011;74136;51.684;7.862;2023-12-04T00:18:21;12.35;;;5.43;;
84048;SDS011;74136;51.684;7.862;2023-12-04T00:20:46;13.27;;;5.65;;
84048;SDS011;74136;51.684;7.862;2023-12-04T00:23:11;11.90;;;5.85;;
84048;SDS011;74136;51.684;7.862;2023-12-04T00:25:37;12.98;;;6.53;;
84048;SDS011;74136;51.684;7.862;2023-12-04T00:28:02;15.32;;;6.53;;
84048;SDS011;74136;51.684;7.862;2023-12-04T00:30:27;14.25;;;6.22;;
84048;SDS011;74136;51.684;7.862;2023-12-04T00:32:53;11.75;;;6.00;;
84048;SDS011;74136;51.684;7.862;2023-12-04T00:35:18;13.32;;;5.57;;
84048;SDS011;74136;51.684;7.862;2023-12-04T00:37:43;14.63;;;6.50;;
84048;SDS011;74136;51.684;7.862;2023-12-04T00:40:09;15.50;;;7.20;;
84048;SDS011;74136;51.684;7.862;2023-12-04T00:42:34;14.30;;;6.32;;
84048;SDS011;74136;51.684;7.862;2023-12-04T00:45:00;9.07;;;4.80;;
84048;SDS011;74136;51.684;7.862;2023-12-04T00:47:26;14.02;;;6.15;;
84048;SDS011;74136;51.684;7.862;2023-12-04T00:49:52;13.77;;;6.35;;
84048;SDS011;74136;51.684;7.862;2023-12-04T00:52:17;15.68;;;6.50;;
84048;SDS011;74136;51.684;7.862;2023-12-04T00:54:42;13.93;;;5.55;;
84048;SDS011;74136;51.684;7.862;2023-12-04T00:57:08;14.65;;;7.05;;
84048;SDS011;74136;51.684;7.862;2023-12-04T00:59:33;14.98;;;6.38;;
84048;SDS011;74136;51.684;7.862;2023-12-04T01:01:58;14.55;;;6.40;;
84048;SDS011;74136;51.684;7.862;2023-12-04T01:04:24;14.82;;;7.18;;
84048;SDS011;74136;51.684;7.862;2023-12-04T01:06:49;13.50;;;6.90;;
84048;SDS011;74136;51.684;7.862;2023-12-04T01:09:14;15.18;;;6.68;;
84048;SDS011;74136;51.684;7.862;2023-12-04T01:11:40;17.83;;;7.45;;
84048;SDS011;74136;51.684;7.862;2023-12-04T01:14:05;15.68;;;7.32;;
84048;SDS011;74136;51.684;7.862;2023-12-04T01:16:31;11.75;;;5.78;;
84048;SDS011;74136;51.684;7.862;2023-12-04T01:18:56;18.23;;;6.90;;
84048;SDS011;74136;51.684;7.862;2023-12-04T01:21:22;15.55;;;6.85;;
84048;SDS011;74136;51.684;7.862;2023-12-04T01:23:47;15.05;;;7.25;;
84048;SDS011;74136;51.684;7.862;2023-12-04T01:26:13;10.63;;;4.57;;
84048;SDS011;74136;51.684;7.862;2023-12-04T01:28:38;14.07;;;6.30;;
84048;SDS011;74136;51.684;7.862;2023-12-04T01:31:04;11.30;;;5.85;;
84048;SDS011;74136;51.684;7.862;2023-12-04T01:33:29;13.57;;;6.32;;
84048;SDS011;74136;51.684;7.862;2023-12-04T01:35:55;13.60;;;6.55;;
84048;SDS011;74136;51.684;7.862;2023-12-04T01:38:20;12.60;;;6.50;;
84048;SDS011;74136;51.684;7.862;2023-12-04T01:40:46;11.45;;;5.85;;
84048;SDS011;74136;51.684;7.862;2023-12-04T01:43:11;12.73;;;6.10;;
84048;SDS011;74136;51.684;7.862;2023-12-04T01:45:36;13.07;;;5.80;;
84048;SDS011;74136;51.684;7.862;2023-12-04T01:48:02;11.85;;;5.22;;
84048;SDS011;74136;51.684;7.862;2023-12-04T01:50:32;12.80;;;5.65;;
84048;SDS011;74136;51.684;7.862;2023-12-04T01:52:59;12.23;;;6.47;;
84048;SDS011;74136;51.684;7.862;2023-12-04T01:55:25;11.70;;;5.63;;
84048;SDS011;74136;51.684;7.862;2023-12-04T01:57:52;13.02;;;5.93;;
84048;SDS011;74136;51.684;7.862;2023-12-04T02:00:19;11.52;;;6.10;;
84048;SDS011;74136;51.684;7.862;2023-12-04T02:02:46;12.10;;;5.38;;
84048;SDS011;74136;51.684;7.862;2023-12-04T02:05:11;9.38;;;4.85;;
84048;SDS011;74136;51.684;7.862;2023-12-04T02:07:40;11.98;;;5.35;;
84048;SDS011;74136;51.684;7.862;2023-12-04T02:10:06;11.05;;;5.45;;
84048;SDS011;74136;51.684;7.862;2023-12-04T02:12:31;11.85;;;5.57;;
84048;SDS011;74136;51.684;7.862;2023-12-04T02:14:57;12.57;;;5.93;;
84048;SDS011;74136;51.684;7.862;2023-12-04T02:17:23;13.52;;;5.82;;
84048;SDS011;74136;51.684;7.862;2023-12-04T02:19:50;8.10;;;4.78;;
84048;SDS011;74136;51.684;7.862;2023-12-04T02:22:16;11.93;;;5.55;;
84048;SDS011;74136;51.684;7.862;2023-12-04T02:24:43;11.73;;;5.40;;
84048;SDS011;74136;51.684;7.862;2023-12-04T02:29:51;10.70;;;5.13;;
84048;SDS011;74136;51.684;7.862;2023-12-04T02:32:21;13.15;;;5.70;;
84048;SDS011;74136;51.684;7.862;2023-12-04T02:34:49;12.27;;;6.30;;
84048;SDS011;74136;51.684;7.862;2023-12-04T02:37:16;10.98;;;5.03;;
84048;SDS011;74136;51.684;7.862;2023-12-04T02:39:42;11.35;;;5.47;;
84048;SDS011;74136;51.684;7.862;2023-12-04T02:42:08;12.20;;;5.35;;
84048;SDS011;74136;51.684;7.862;2023-12-04T02:44:34;12.63;;;5.72;;
84048;SDS011;74136;51.684;7.862;2023-12-04T02:46:59;12.63;;;5.88;;
84048;SDS011;74136;51.684;7.862;2023-12-04T02:49:25;13.13;;;6.03;;
84048;SDS011;74136;51.684;7.862;2023-12-04T02:51:50;13.70;;;6.50;;
84048;SDS011;74136;51.684;7.862;2023-12-04T02:54:15;10.77;;;5.70;;
84048;SDS011;74136;51.684;7.862;2023-12-04T02:56:41;9.70;;;4.32;;
84048;SDS011;74136;51.684;7.862;2023-12-04T02:59:06;10.90;;;5.15;;
84048;SDS011;74136;51.684;7.862;2023-12-04T03:01:31;10.93;;;5.35;;
84048;SDS011;74136;51.684;7.862;2023-12-04T03:03:57;9.73;;;4.85;;
84048;SDS011;74136;51.684;7.862;2023-12-04T03:06:22;10.70;;;5.25;;
84048;SDS011;74136;51.684;7.862;2023-12-04T03:08:48;9.85;;;4.65;;
84048;SDS011;74136;51.684;7.862;2023-12-04T03:11:13;9.80;;;4.55;;
84048;SDS011;74136;51.684;7.862;2023-12-04T03:13:38;8.25;;;4.13;;
84048;SDS011;74136;51.684;7.862;2023-12-04T03:16:04;8.55;;;4.65;;
84048;SDS011;74136;51.684;7.862;2023-12-04T03:18:29;9.97;;;4.60;;
84048;SDS011;74136;51.684;7.862;2023-12-04T03:20:55;8.73;;;4.55;;
84048;SDS011;74136;51.684;7.862;2023-12-04T03:23:20;9.02;;;4.78;;
84048;SDS011;74136;51.684;7.862;2023-12-04T03:25:45;9.27;;;4.63;;
84048;SDS011;74136;51.684;7.862;2023-12-04T03:28:11;9.70;;;4.75;;
84048;SDS011;74136;51.684;7.862;2023-12-04T03:30:38;8.80;;;3.78;;
84048;SDS011;74136;51.684;7.862;2023-12-04T03:33:03;8.35;;;3.92;;
84048;SDS011;74136;51.684;7.862;2023-12-04T03:35:29;8.18;;;3.90;;
84048;SDS011;74136;51.684;7.862;2023-12-04T03:37:54;8.75;;;4.32;;
84048;SDS011;74136;51.684;7.862;2023-12-04T03:40:19;8.02;;;4.65;;
84048;SDS011;74136;51.684;7.862;2023-12-04T03:42:45;8.20;;;4.00;;
84048;SDS011;74136;51.684;7.862;2023-12-04T03:45:10;8.02;;;3.97;;
84048;SDS011;74136;51.684;7.862;2023-12-04T03:47:35;8.23;;;4.20;;
84048;SDS011;74136;51.684;7.862;2023-12-04T03:50:01;7.53;;;3.97;;
84048;SDS011;74136;51.684;7.862;2023-12-04T03:52:26;6.75;;;3.33;;
84048;SDS011;74136;51.684;7.862;2023-12-04T03:54:52;7.75;;;4.03;;
84048;SDS011;74136;51.684;7.862;2023-12-04T03:57:17;8.38;;;3.90;;
84048;SDS011;74136;51.684;7.862;2023-12-04T03:59:43;7.95;;;3.72;;
84048;SDS011;74136;51.684;7.862;2023-12-04T04:02:09;7.55;;;3.42;;
84048;SDS011;74136;51.684;7.862;2023-12-04T04:04:34;6.97;;;3.72;;
84048;SDS011;74136;51.684;7.862;2023-12-04T04:06:59;6.18;;;3.30;;
84048;SDS011;74136;51.684;7.862;2023-12-04T04:09:25;8.52;;;3.47;;
84048;SDS011;74136;51.684;7.862;2023-12-04T04:11:50;7.40;;;3.90;;
84048;SDS011;74136;51.684;7.862;2023-12-04T04:14:15;7.13;;;3.83;;
84048;SDS011;74136;51.684;7.862;2023-12-04T04:16:41;9.70;;;3.88;;
84048;SDS011;74136;51.684;7.862;2023-12-04T04:19:06;6.22;;;3.33;;
84048;SDS011;74136;51.684;7.862;2023-12-04T04:21:31;6.22;;;3.58;;
84048;SDS011;74136;51.684;7.862;2023-12-04T04:23:57;7.03;;;3.90;;
84048;SDS011;74136;51.684;7.862;2023-12-04T04:26:22;5.82;;;3.17;;
84048;SDS011;74136;51.684;7.862;2023-12-04T04:28:47;5.63;;;2.97;;
84048;SDS011;74136;51.684;7.862;2023-12-04T04:31:13;6.22;;;3.60;;
84048;SDS011;74136;51.684;7.862;2023-12-04T04:33:38;7.80;;;3.22;;
84048;SDS011;74136;51.684;7.862;2023-12-04T04:36:04;6.95;;;3.40;;
84048;SDS011;74136;51.684;7.862;2023-12-04T04:38:29;6.15;;;3.03;;
84048;SDS011;74136;51.684;7.862;2023-12-04T04:40:55;6.10;;;3.28;;
84048;SDS011;74136;51.684;7.862;2023-12-04T04:43:20;6.40;;;3.38;;
84048;SDS011;74136;51.684;7.862;2023-12-04T04:45:46;6.20;;;3.10;;
84048;SDS011;74136;51.684;7.862;2023-12-04T04:48:11;5.03;;;2.88;;
84048;SDS011;74136;51.684;7.862;2023-12-04T04:50:37;5.63;;;3.00;;
84048;SDS011;74136;51.684;7.862;2023-12-04T04:53:02;6.80;;;3.75;;
84048;SDS011;74136;51.684;7.862;2023-12-04T04:55:27;4.32;;;2.35;;
84048;SDS011;74136;51.684;7.862;2023-12-04T04:57:53;6.65;;;3.20;;
84048;SDS011;74136;51.684;7.862;2023-12-04T05:02:43;7.07;;;3.00;;
84048;SDS011;74136;51.684;7.862;2023-12-04T05:05:09;3.50;;;1.88;;
84048;SDS011;74136;51.684;7.862;2023-12-04T05:07:36;5.50;;;2.85;;
84048;SDS011;74136;51.684;7.862;2023-12-04T05:10:01;4.82;;;2.72;;
84048;SDS011;74136;51.684;7.862;2023-12-04T05:12:27;6.47;;;2.95;;
84048;SDS011;74136;51.684;7.862;2023-12-04T05:14:52;5.40;;;3.00;;
84048;SDS011;74136;51.684;7.862;2023-12-04T05:17:18;6.75;;;3.08;;
84048;SDS011;74136;51.684;7.862;2023-12-04T05:19:43;4.65;;;2.72;;
84048;SDS011;74136;51.684;7.862;2023-12-04T05:22:08;5.57;;;2.90;;
84048;SDS011;74136;51.684;7.862;2023-12-04T05:24:34;5.22;;;3.13;;
84048;SDS011;74136;51.684;7.862;2023-12-04T05:27:00;4.85;;;2.80;;
84048;SDS011;74136;51.684;7.862;2023-12-04T05:29:27;5.63;;;3.13;;
84048;SDS011;74136;51.684;7.862;2023-12-04T05:31:52;4.50;;;2.38;;
84048;SDS011;74136;51.684;7.862;2023-12-04T05:34:18;5.55;;;2.78;;
84048;SDS011;74136;51.684;7.862;2023-12-04T05:36:43;6.18;;;2.65;;
84048;SDS011;74136;51.684;7.862;2023-12-04T05:39:08;6.32;;;3.13;;
84048;SDS011;74136;51.684;7.862;2023-12-04T05:41:34;5.20;;;2.88;;
84048;SDS011;74136;51.684;7.862;2023-12-04T05:43:59;5.93;;;2.80;;
84048;SDS011;74136;51.684;7.862;2023-12-04T05:46:24;5.40;;;3.00;;
84048;SDS011;74136;51.684;7.862;2023-12-04T05:48:50;6.47;;;2.97;;
84048;SDS011;74136;51.684;7.862;2023-12-04T05:51:15;5.63;;;2.78;;
84048;SDS011;74136;51.684;7.862;2023-12-04T05:53:40;5.40;;;2.72;;
84048;SDS011;74136;51.684;7.862;2023-12-04T05:56:06;6.30;;;2.65;;
84048;SDS011;74136;51.684;7.862;2023-12-04T05:58:34;6.32;;;2.80;;
84048;SDS011;74136;51.684;7.862;2023-12-04T06:00:59;5.95;;;3.03;;
84048;SDS011;74136;51.684;7.862;2023-12-04T06:03:25;6.13;;;3.38;;
84048;SDS011;74136;51.684;7.862;2023-12-04T06:05:50;6.93;;;3.50;;
84048;SDS011;74136;51.684;7.862;2023-12-04T06:08:16;7.63;;;3.53;;
84048;SDS011;74136;51.684;7.862;2023-12-04T06:10:41;5.30;;;2.97;;
84048;SDS011;74136;51.684;7.862;2023-12-04T06:13:06;8.48;;;3.30;;
84048;SDS011;74136;51.684;7.862;2023-12-04T06:15:32;11.23;;;4.57;;
84048;SDS011;74136;51.684;7.862;2023-12-04T06:17:57;7.70;;;3.05;;
84048;SDS011;74136;51.684;7.862;2023-12-04T06:20:22;9.20;;;3.83;;
84048;SDS011;74136;51.684;7.862;2023-12-04T06:22:48;7.57;;;3.92;;
84048;SDS011;74136;51.684;7.862;2023-12-04T06:25:13;6.45;;;3.50;;
84048;SDS011;74136;51.684;7.862;2023-12-04T06:27:40;6.07;;;3.38;;
84048;SDS011;74136;51.684;7.862;2023-12-04T06:30:05;6.57;;;3.58;;
84048;SDS011;74136;51.684;7.862;2023-12-04T06:32:31;8.15;;;3.70;;
84048;SDS011;74136;51.684;7.862;2023-12-04T06:34:57;6.47;;;3.45;;
84048;SDS011;74136;51.684;7.862;2023-12-04T06:37:23;8.45;;;4.82;;
84048;SDS011;74136;51.684;7.862;2023-12-04T06:39:48;6.85;;;3.35;;
84048;SDS011;74136;51.684;7.862;2023-12-04T06:42:17;5.82;;;3.13;;
84048;SDS011;74136;51.684;7.862;2023-12-04T06:44:43;6.45;;;3.47;;
84048;SDS011;74136;51.684;7.862;2023-12-04T06:47:09;7.13;;;3.50;;
84048;SDS011;74136;51.684;7.862;2023-12-04T06:49:36;6.63;;;3.85;;
84048;SDS011;74136;51.684;7.862;2023-12-04T06:52:02;7.55;;;3.40;;
84048;SDS011;74136;51.684;7.862;2023-12-04T06:54:28;5.63;;;3.28;;
84048;SDS011;74136;51.684;7.862;2023-12-04T06:56:54;7.50;;;3.35;;
84048;SDS011;74136;51.684;7.862;2023-12-04T06:59:19;6.97;;;3.50;;
84048;SDS011;74136;51.684;7.862;2023-12-04T07:01:46;9.30;;;3.30;;
84048;SDS011;74136;51.684;7.862;2023-12-04T07:04:11;6.63;;;3.42;;
84048;SDS011;74136;51.684;7.862;2023-12-04T07:06:37;6.35;;;3.33;;
84048;SDS011;74136;51.684;7.862;2023-12-04T07:09:03;7.43;;;3.50;;
84048;SDS011;74136;51.684;7.862;2023-12-04T07:11:28;5.60;;;2.85;;
84048;SDS011;74136;51.684;7.862;2023-12-04T07:13:54;5.93;;;2.75;;
84048;SDS011;74136;51.684;7.862;2023-12-04T07:16:19;7.93;;;3.20;;
84048;SDS011;74136;51.684;7.862;2023-12-04T07:18:44;5.13;;;2.88;;
84048;SDS011;74136;51.684;7.862;2023-12-04T07:21:10;6.53;;;3.70;;
84048;SDS011;74136;51.684;7.862;2023-12-04T07:23:36;5.72;;;3.20;;
84048;SDS011;74136;51.684;7.862;2023-12-04T07:26:01;6.88;;;3.47;;
84048;SDS011;74136;51.684;7.862;2023-12-04T07:28:27;5.40;;;3.50;;
84048;SDS011;74136;51.684;7.862;2023-12-04T07:30:54;6.47;;;3.40;;
84048;SDS011;74136;51.684;7.862;2023-12-04T07:33:20;6.65;;;3.42;;
84048;SDS011;74136;51.684;7.862;2023-12-04T07:35:45;7.68;;;3.70;;
84048;SDS011;74136;51.684;7.862;2023-12-04T07:38:10;5.65;;;3.03;;
84048;SDS011;74136;51.684;7.862;2023-12-04T07:40:36;6.82;;;3.42;;
84048;SDS011;74136;51.684;7.862;2023-12-04T07:43:02;7.43;;;3.88;;
84048;SDS011;74136;51.684;7.862;2023-12-04T07:45:27;6.47;;;3.42;;
84048;SDS011;74136;51.684;7.862;2023-12-04T07:47:53;7.47;;;3.42;;
84048;SDS011;74136;51.684;7.862;2023-12-04T07:50:18;6.07;;;3.00;;
84048;SDS011;74136;51.684;7.862;2023-12-04T07:52:44;6.10;;;3.03;;
84048;SDS011;74136;51.684;7.862;2023-12-04T07:55:09;4.18;;;2.15;;
84048;SDS011;74136;51.684;7.862;2023-12-04T07:57:35;5.00;;;3.03;;
84048;SDS011;74136;51.684;7.862;2023-12-04T08:00:00;6.38;;;3.40;;
84048;SDS011;74136;51.684;7.862;2023-12-04T08:02:26;5.60;;;3.33;;
84048;SDS011;74136;51.684;7.862;2023-12-04T08:04:51;5.63;;;3.28;;
84048;SDS011;74136;51.684;7.862;2023-12-04T08:07:17;6.53;;;3.60;;
84048;SDS011;74136;51.684;7.862;2023-12-04T08:09:42;5.80;;;3.38;;
84048;SDS011;74136;51.684;7.862;2023-12-04T08:12:07;6.18;;;3.00;;
84048;SDS011;74136;51.684;7.862;2023-12-04T08:14:34;6.10;;;3.22;;
84048;SDS011;74136;51.684;7.862;2023-12-04T08:16:59;6.15;;;3.50;;
84048;SDS011;74136;51.684;7.862;2023-12-04T08:19:24;5.45;;;2.97;;
84048;SDS011;74136;51.684;7.862;2023-12-04T08:21:50;4.80;;;2.88;;
84048;SDS011;74136;51.684;7.862;2023-12-04T08:24:15;5.60;;;3.13;;
84048;SDS011;74136;51.684;7.862;2023-12-04T08:26:43;4.72;;;2.60;;
84048;SDS011;74136;51.684;7.862;2023-12-04T08:29:09;7.05;;;3.53;;
84048;SDS011;74136;51.684;7.862;2023-12-04T08:31:34;6.07;;;2.67;;
84048;SDS011;74136;51.684;7.862;2023-12-04T08:34:00;5.45;;;3.13;;
84048;SDS011;74136;51.684;7.862;2023-12-04T08:36:25;4.97;;;2.67;;
84048;SDS011;74136;51.684;7.862;2023-12-04T09:57:09;5.20;;;2.83;;
84048;SDS011;74136;51.684;7.862;2023-12-04T09:59:35;6.25;;;2.97;;
84048;SDS011;74136;51.684;7.862;2023-12-04T10:02:01;4.75;;;2.25;;
84048;SDS011;74136;51.684;7.862;2023-12-04T10:04:26;5.18;;;2.78;;
84048;SDS011;74136;51.684;7.862;2023-12-04T10:06:52;6.72;;;3.55;;
84048;SDS011;74136;51.684;7.862;2023-12-04T10:09:18;10.35;;;3.58;;
84048;SDS011;74136;51.684;7.862;2023-12-04T10:11:46;6.10;;;3.20;;
84048;SDS011;74136;51.684;7.862;2023-12-04T10:16:42;4.05;;;2.13;;
84048;SDS011;74136;51.684;7.862;2023-12-04T10:19:23;6.68;;;3.50;;
84048;SDS011;74136;51.684;7.862;2023-12-04T10:22:02;5.18;;;2.88;;
84048;SDS011;74136;51.684;7.862;2023-12-04T10:24:35;6.82;;;2.85;;
84048;SDS011;74136;51.684;7.862;2023-12-04T10:27:02;6.30;;;3.20;;
84048;SDS011;74136;51.684;7.862;2023-12-04T10:29:43;4.97;;;2.80;;
84048;SDS011;74136;51.684;7.862;2023-12-04T10:32:13;6.07;;;3.13;;
84048;SDS011;74136;51.684;7.862;2023-12-04T10:34:43;5.97;;;3.10;;
84048;SDS011;74136;51.684;7.862;2023-12-04T10:37:08;7.30;;;3.17;;
84048;SDS011;74136;51.684;7.862;2023-12-04T10:39:48;6.13;;;2.85;;
84048;SDS011;74136;51.684;7.862;2023-12-04T10:42:27;5.25;;;2.80;;
84048;SDS011;74136;51.684;7.862;2023-12-04T10:44:57;6.47;;;3.20;;
84048;SDS011;74136;51.684;7.862;2023-12-04T10:47:23;7.07;;;3.50;;
84048;SDS011;74136;51.684;7.862;2023-12-04T10:49:49;5.65;;;3.20;;
84048;SDS011;74136;51.684;7.862;2023-12-04T10:52:14;5.60;;;3.17;;
84048;SDS011;74136;51.684;7.862;2023-12-04T10:54:40;7.57;;;3.30;;
84048;SDS011;74136;51.684;7.862;2023-12-04T10:57:06;6.20;;;2.67;;
84048;SDS011;74136;51.684;7.862;2023-12-04T10:59:36;6.35;;;3.03;;
84048;SDS011;74136;51.684;7.862;2023-12-04T11:02:05;6.07;;;3.05;;
84048;SDS011;74136;51.684;7.862;2023-12-04T11:04:33;5.30;;;2.63;;
84048;SDS011;74136;51.684;7.862;2023-12-04T11:07:02;6.00;;;2.97;;
84048;SDS011;74136;51.684;7.862;2023-12-04T11:09:29;7.30;;;3.70;;
84048;SDS011;74136;51.684;7.862;2023-12-04T11:11:57;5.80;;;3.17;;
84048;SDS011;74136;51.684;7.862;2023-12-04T11:14:28;6.22;;;2.95;;
84048;SDS011;74136;51.684;7.862;2023-12-04T11:17:01;5.07;;;2.70;;
84048;SDS011;74136;51.684;7.862;2023-12-04T11:21:57;6.57;;;3.30;;
84048;SDS011;74136;51.684;7.862;2023-12-04T11:24:23;6.07;;;3.17;;
84048;SDS011;74136;51.684;7.862;2023-12-04T11:26:49;5.18;;;2.70;;
84048;SDS011;74136;51.684;7.862;2023-12-04T11:29:15;6.13;;;3.08;;
84048;SDS011;74136;51.684;7.862;2023-12-04T11:31:42;5.90;;;2.63;;
84048;SDS011;74136;51.684;7.862;2023-12-04T11:34:07;5.68;;;2.95;;
84048;SDS011;74136;51.684;7.862;2023-12-04T11:36:34;7.15;;;2.70;;
84048;SDS011;74136;51.684;7.862;2023-12-04T11:39:01;3.90;;;2.13;;
84048;SDS011;74136;51.684;7.862;2023-12-04T11:41:26;5.43;;;2.95;;
84048;SDS011;74136;51.684;7.862;2023-12-04T11:43:52;6.93;;;3.47;;
84048;SDS011;74136;51.684;7.862;2023-12-04T11:46:20;6.40;;;2.83;;
84048;SDS011;74136;51.684;7.862;2023-12-04T11:48:50;7.38;;;3.58;;
84048;SDS011;74136;51.684;7.862;2023-12-04T11:54:07;5.68;;;2.72;;
84048;SDS011;74136;51.684;7.862;2023-12-04T11:56:33;5.95;;;2.15;;
84048;SDS011;74136;51.684;7.862;2023-12-04T11:59:03;5.40;;;2.00;;
84048;SDS011;74136;51.684;7.862;2023-12-04T12:01:32;4.78;;;2.50;;
84048;SDS011;74136;51.684;7.862;2023-12-04T12:03:59;6.40;;;2.72;;
84048;SDS011;74136;51.684;7.862;2023-12-04T12:06:24;7.25;;;3.13;;
84048;SDS011;74136;51.684;7.862;2023-12-04T12:08:50;4.65;;;3.00;;
84048;SDS011;74136;51.684;7.862;2023-12-04T12:11:16;5.85;;;2.80;;
84048;SDS011;74136;51.684;7.862;2023-12-04T12:13:42;9.10;;;3.08;;
84048;SDS011;74136;51.684;7.862;2023-12-04T12:16:07;10.35;;;3.22;;
84048;SDS011;74136;51.684;7.862;2023-12-04T12:18:36;5.18;;;2.72;;
84048;SDS011;74136;51.684;7.862;2023-12-04T12:21:01;6.13;;;2.85;;
84048;SDS011;74136;51.684;7.862;2023-12-04T12:23:27;4.30;;;2.47;;
84048;SDS011;74136;51.684;7.862;2023-12-04T12:25:52;5.75;;;3.05;;
84048;SDS011;74136;51.684;7.862;2023-12-04T12:28:18;4.53;;;2.17;;
84048;SDS011;74136;51.684;7.862;2023-12-04T12:30:44;7.68;;;3.30;;
84048;SDS011;74136;51.684;7.862;2023-12-04T12:33:12;5.80;;;3.47;;
84048;SDS011;74136;51.684;7.862;2023-12-04T12:35:39;6.63;;;3.15;;
84048;SDS011;74136;51.684;7.862;2023-12-04T12:38:04;5.55;;;3.00;;
84048;SDS011;74136;51.684;7.862;2023-12-04T12:40:30;6.75;;;3.08;;
84048;SDS011;74136;51.684;7.862;2023-12-04T12:43:08;8.23;;;3.63;;
84048;SDS011;74136;51.684;7.862;2023-12-04T12:45:40;7.90;;;3.40;;
84048;SDS011;74136;51.684;7.862;2023-12-04T12:48:12;6.28;;;3.22;;
84048;SDS011;74136;51.684;7.862;2023-12-04T12:50:38;5.78;;;3.35;;
84048;SDS011;74136;51.684;7.862;2023-12-04T12:53:04;7.05;;;3.63;;
84048;SDS011;74136;51.684;7.862;2023-12-04T12:55:29;7.28;;;3.72;;
84048;SDS011;74136;51.684;7.862;2023-12-04T12:57:57;5.55;;;3.10;;
84048;SDS011;74136;51.684;7.862;2023-12-04T13:00:23;6.38;;;3.33;;
84048;SDS011;74136;51.684;7.862;2023-12-04T13:02:51;7.32;;;3.88;;
84048;SDS011;74136;51.684;7.862;2023-12-04T13:05:17;5.50;;;2.80;;
84048;SDS011;74136;51.684;7.862;2023-12-04T13:07:44;7.28;;;3.35;;
84048;SDS011;74136;51.684;7.862;2023-12-04T13:10:10;7.00;;;3.85;;
84048;SDS011;74136;51.684;7.862;2023-12-04T13:12:36;8.65;;;4.00;;
84048;SDS011;74136;51.684;7.862;2023-12-04T13:15:02;7.55;;;3.55;;
84048;SDS011;74136;51.684;7.862;2023-12-04T13:17:28;9.18;;;4.30;;
84048;SDS011;74136;51.684;7.862;2023-12-04T13:19:54;5.60;;;3.22;;
84048;SDS011;74136;51.684;7.862;2023-12-04T13:22:19;8.50;;;4.03;;
84048;SDS011;74136;51.684;7.862;2023-12-04T13:24:44;7.47;;;3.65;;
84048;SDS011;74136;51.684;7.862;2023-12-04T13:27:10;9.43;;;4.60;;
84048;SDS011;74136;51.684;7.862;2023-12-04T13:29:36;10.18;;;3.72;;
84048;SDS011;74136;51.684;7.862;2023-12-04T13:32:01;13.00;;;5.47;;
84048;SDS011;74136;51.684;7.862;2023-12-04T13:34:28;10.65;;;5.45;;
84048;SDS011;74136;51.684;7.862;2023-12-04T13:36:53;7.20;;;3.80;;
84048;SDS011;74136;51.684;7.862;2023-12-04T13:39:18;9.68;;;4.50;;
84048;SDS011;74136;51.684;7.862;2023-12-04T13:41:51;10.00;;;4.07;;
84048;SDS011;74136;51.684;7.862;2023-12-04T13:44:36;6.70;;;3.83;;
84048;SDS011;74136;51.684;7.862;2023-12-04T13:47:02;8.13;;;4.47;;
84048;SDS011;74136;51.684;7.862;2023-12-04T13:49:28;7.32;;;4.20;;
84048;SDS011;74136;51.684;7.862;2023-12-04T13:51:53;10.07;;;4.13;;
84048;SDS011;74136;51.684;7.862;2023-12-04T13:54:20;8.50;;;3.95;;
84048;SDS011;74136;51.684;7.862;2023-12-04T13:56:49;6.70;;;3.95;;
84048;SDS011;74136;51.684;7.862;2023-12-04T13:59:18;9.43;;;4.25;;
84048;SDS011;74136;51.684;7.862;2023-12-04T14:01:45;8.77;;;4.25;;
84048;SDS011;74136;51.684;7.862;2023-12-04T14:04:11;10.57;;;4.45;;
84048;SDS011;74136;51.684;7.862;2023-12-04T14:06:37;8.05;;;3.85;;
84048;SDS011;74136;51.684;7.862;2023-12-04T14:09:02;9.35;;;5.20;;
84048;SDS011;74136;51.684;7.862;2023-12-04T14:11:35;9.45;;;4.50;;
84048;SDS011;74136;51.684;7.862;2023-12-04T14:14:01;8.07;;;4.82;;
84048;SDS011;74136;51.684;7.862;2023-12-04T14:16:26;11.55;;;4.53;;
84048;SDS011;74136;51.684;7.862;2023-12-04T14:18:52;9.18;;;4.35;;
84048;SDS011;74136;51.684;7.862;2023-12-04T14:21:18;9.50;;;4.30;;
84048;SDS011;74136;51.684;7.862;2023-12-04T14:23:43;7.50;;;4.43;;
84048;SDS011;74136;51.684;7.862;2023-12-04T14:26:09;9.93;;;5.40;;
84048;SDS011;74136;51.684;7.862;2023-12-04T14:28:34;9.98;;;5.00;;
84048;SDS011;74136;51.684;7.862;2023-12-04T14:30:59;8.70;;;5.13;;
84048;SDS011;74136;51.684;7.862;2023-12-04T14:33:25;9.98;;;4.43;;
84048;SDS011;74136;51.684;7.862;2023-12-04T14:35:50;9.95;;;5.40;;
84048;SDS011;74136;51.684;7.862;2023-12-04T14:38:16;10.02;;;5.20;;
84048;SDS011;74136;51.684;7.862;2023-12-04T14:40:41;9.50;;;4.47;;
84048;SDS011;74136;51.684;7.862;2023-12-04T14:43:06;9.82;;;5.13;;
84048;SDS011;74136;51.684;7.862;2023-12-04T14:45:37;8.77;;;4.32;;
84048;SDS011;74136;51.684;7.862;2023-12-04T14:48:03;10.68;;;5.55;;
84048;SDS011;74136;51.684;7.862;2023-12-04T14:50:32;10.55;;;5.38;;
84048;SDS011;74136;51.684;7.862;2023-12-04T14:53:07;9.02;;;4.07;;
84048;SDS011;74136;51.684;7.862;2023-12-04T14:55:44;10.82;;;4.70;;
84048;SDS011;74136;51.684;7.862;2023-12-04T14:58:28;12.38;;;5.75;;
84048;SDS011;74136;51.684;7.862;2023-12-04T15:01:06;12.63;;;6.32;;
84048;SDS011;74136;51.684;7.862;2023-12-04T15:03:37;11.98;;;5.75;;
84048;SDS011;74136;51.684;7.862;2023-12-04T15:06:03;12.35;;;5.22;;
84048;SDS011;74136;51.684;7.862;2023-12-04T15:09:00;11.55;;;5.10;;
84048;SDS011;74136;51.684;7.862;2023-12-04T15:11:44;8.57;;;4.50;;
84048;SDS011;74136;51.684;7.862;2023-12-04T15:14:32;6.80;;;3.42;;
84048;SDS011;74136;51.684;7.862;2023-12-04T15:17:16;8.45;;;4.30;;
84048;SDS011;74136;51.684;7.862;2023-12-04T15:19:44;6.07;;;2.95;;
84048;SDS011;74136;51.684;7.862;2023-12-04T15:22:25;6.82;;;3.38;;
84048;SDS011;74136;51.684;7.862;2023-12-04T15:24:50;8.52;;;4.00;;
84048;SDS011;74136;51.684;7.862;2023-12-04T15:27:16;5.93;;;2.70;;
84048;SDS011;74136;51.684;7.862;2023-12-04T15:29:42;5.47;;;3.00;;
84048;SDS011;74136;51.684;7.862;2023-12-04T15:32:08;6.85;;;3.92;;
84048;SDS011;74136;51.684;7.862;2023-12-04T15:34:33;7.45;;;4.13;;
84048;SDS011;74136;51.684;7.862;2023-12-04T15:36:59;8.13;;;3.90;;
84048;SDS011;74136;51.684;7.862;2023-12-04T15:39:24;6.88;;;3.38;;
84048;SDS011;74136;51.684;7.862;2023-12-04T15:41:49;8.70;;;4.22;;
84048;SDS011;74136;51.684;7.862;2023-12-04T15:44:15;7.85;;;4.22;;
84048;SDS011;74136;51.684;7.862;2023-12-04T15:46:41;9.05;;;4.00;;
84048;SDS011;74136;51.684;7.862;2023-12-04T15:49:06;6.32;;;3.33;;
84048;SDS011;74136;51.684;7.862;2023-12-04T15:51:31;4.78;;;3.13;;
84048;SDS011;74136;51.684;7.862;2023-12-04T15:53:58;7.03;;;3.20;;
84048;SDS011;74136;51.684;7.862;2023-12-04T15:56:24;5.05;;;2.75;;
84048;SDS011;74136;51.684;7.862;2023-12-04T15:58:49;8.05;;;3.58;;
84048;SDS011;74136;51.684;7.862;2023-12-04T16:01:15;7.63;;;3.50;;
84048;SDS011;74136;51.684;7.862;2023-12-04T16:03:40;7.47;;;4.15;;
84048;SDS011;74136;51.684;7.862;2023-12-04T16:06:05;11.18;;;5.38;;
84048;SDS011;74136;51.684;7.862;2023-12-04T16:08:31;12.25;;;5.78;;
84048;SDS011;74136;51.684;7.862;2023-12-04T16:10:58;12.02;;;6.43;;